sensor_id;sensor_type;location;lat;lon;timestamp;P1;durP1;ratioP1;P2;durP2;ratioP2
32633;SDS011;19043;51.012;5.648;2022-07-12T00:01:44;5.07;;;3.50;;
32633;SDS011;19043;51.012;5.648;2022-07-12T00:04:10;3.80;;;2.60;;
32633;SDS011;19043;51.012;5.648;2022-07-12T00:06:35;5.05;;;3.40;;
32633;SDS011;19043;51.012;5.648;2022-07-12T00:09:01;5.88;;;3.40;;
32633;SDS011;19043;51.012;5.648;2022-07-12T00:11:26;3.80;;;2.53;;
32633;SDS011;19043;51.012;5.648;2022-07-12T00:13:52;4.90;;;2.83;;
32633;SDS011;19043;51.012;5.648;2022-07-12T00:16:17;6.13;;;3.40;;
32633;SDS011;19043;51.012;5.648;2022-07-12T00:18:42;4.18;;;2.95;;
32633;SDS011;19043;51.012;5.648;2022-07-12T00:21:08;4.22;;;3.15;;
32633;SDS011;19043;51.012;5.648;2022-07-12T00:23:34;4.68;;;3.53;;
32633;SDS011;19043;51.012;5.648;2022-07-12T00:25:59;6.50;;;3.08;;
32633;SDS011;19043;51.012;5.648;2022-07-12T00:28:29;7.28;;;3.92;;
32633;SDS011;19043;51.012;5.648;2022-07-12T00:30:55;5.65;;;3.20;;
32633;SDS011;19043;51.012;5.648;2022-07-12T00:33:20;3.40;;;2.85;;
32633;SDS011;19043;51.012;5.648;2022-07-12T00:35:45;4.20;;;2.95;;
32633;SDS011;19043;51.012;5.648;2022-07-12T00:38:11;4.25;;;3.20;;
32633;SDS011;19043;51.012;5.648;2022-07-12T00:40:36;6.28;;;3.58;;
32633;SDS011;19043;51.012;5.648;2022-07-12T00:43:02;6.00;;;3.13;;
32633;SDS011;19043;51.012;5.648;2022-07-12T00:45:27;4.05;;;2.78;;
32633;SDS011;19043;51.012;5.648;2022-07-12T00:47:52;5.60;;;3.78;;
32633;SDS011;19043;51.012;5.648;2022-07-12T00:50:19;4.68;;;3.05;;
32633;SDS011;19043;51.012;5.648;2022-07-12T00:52:47;4.32;;;3.22;;
32633;SDS011;19043;51.012;5.648;2022-07-12T00:55:13;4.40;;;3.10;;
32633;SDS011;19043;51.012;5.648;2022-07-12T00:57:39;4.82;;;3.53;;
32633;SDS011;19043;51.012;5.648;2022-07-12T01:00:08;5.20;;;3.97;;
32633;SDS011;19043;51.012;5.648;2022-07-12T01:02:35;5.55;;;4.53;;
32633;SDS011;19043;51.012;5.648;2022-07-12T01:05:02;6.32;;;4.72;;
32633;SDS011;19043;51.012;5.648;2022-07-12T01:07:29;6.07;;;4.43;;
32633;SDS011;19043;51.012;5.648;2022-07-12T01:09:55;5.43;;;4.20;;
32633;SDS011;19043;51.012;5.648;2022-07-12T01:12:21;5.70;;;4.90;;
32633;SDS011;19043;51.012;5.648;2022-07-12T01:14:47;7.68;;;5.13;;
32633;SDS011;19043;51.012;5.648;2022-07-12T01:17:14;6.78;;;4.93;;
32633;SDS011;19043;51.012;5.648;2022-07-12T01:19:40;6.07;;;5.15;;
32633;SDS011;19043;51.012;5.648;2022-07-12T01:22:10;7.50;;;5.47;;
32633;SDS011;19043;51.012;5.648;2022-07-12T01:24:36;8.43;;;5.57;;
32633;SDS011;19043;51.012;5.648;2022-07-12T01:27:02;6.15;;;4.97;;
32633;SDS011;19043;51.012;5.648;2022-07-12T01:29:28;9.80;;;7.70;;
32633;SDS011;19043;51.012;5.648;2022-07-12T01:31:55;7.15;;;5.82;;
32633;SDS011;19043;51.012;5.648;2022-07-12T01:34:20;8.40;;;5.60;;
32633;SDS011;19043;51.012;5.648;2022-07-12T01:36:46;6.45;;;5.32;;
32633;SDS011;19043;51.012;5.648;2022-07-12T01:39:11;6.22;;;5.20;;
32633;SDS011;19043;51.012;5.648;2022-07-12T01:41:37;7.47;;;4.97;;
32633;SDS011;19043;51.012;5.648;2022-07-12T01:44:03;6.25;;;5.20;;
32633;SDS011;19043;51.012;5.648;2022-07-12T01:46:28;6.47;;;4.93;;
32633;SDS011;19043;51.012;5.648;2022-07-12T01:48:53;6.05;;;5.18;;
32633;SDS011;19043;51.012;5.648;2022-07-12T01:51:19;6.43;;;4.80;;
32633;SDS011;19043;51.012;5.648;2022-07-12T01:53:44;6.40;;;4.60;;
32633;SDS011;19043;51.012;5.648;2022-07-12T01:56:10;6.75;;;4.50;;
32633;SDS011;19043;51.012;5.648;2022-07-12T01:58:35;7.15;;;5.30;;
32633;SDS011;19043;51.012;5.648;2022-07-12T02:01:02;6.07;;;5.05;;
32633;SDS011;19043;51.012;5.648;2022-07-12T02:03:27;5.68;;;4.10;;
32633;SDS011;19043;51.012;5.648;2022-07-12T02:05:53;8.35;;;5.30;;
32633;SDS011;19043;51.012;5.648;2022-07-12T02:08:18;7.15;;;4.68;;
32633;SDS011;19043;51.012;5.648;2022-07-12T02:10:44;7.40;;;5.07;;
32633;SDS011;19043;51.012;5.648;2022-07-12T02:13:09;7.40;;;5.38;;
32633;SDS011;19043;51.012;5.648;2022-07-12T02:15:35;7.07;;;5.53;;
32633;SDS011;19043;51.012;5.648;2022-07-12T02:18:01;5.20;;;4.70;;
32633;SDS011;19043;51.012;5.648;2022-07-12T02:20:26;5.20;;;4.45;;
32633;SDS011;19043;51.012;5.648;2022-07-12T02:22:52;5.88;;;4.72;;
32633;SDS011;19043;51.012;5.648;2022-07-12T02:25:17;7.07;;;5.47;;
32633;SDS011;19043;51.012;5.648;2022-07-12T02:27:43;5.43;;;4.57;;
32633;SDS011;19043;51.012;5.648;2022-07-12T02:30:09;6.95;;;4.93;;
32633;SDS011;19043;51.012;5.648;2022-07-12T02:32:35;5.78;;;4.78;;
32633;SDS011;19043;51.012;5.648;2022-07-12T02:35:01;6.82;;;4.63;;
32633;SDS011;19043;51.012;5.648;2022-07-12T02:37:27;6.45;;;4.10;;
32633;SDS011;19043;51.012;5.648;2022-07-12T02:39:52;6.05;;;4.28;;
32633;SDS011;19043;51.012;5.648;2022-07-12T02:42:38;8.32;;;4.15;;
32633;SDS011;19043;51.012;5.648;2022-07-12T02:45:04;6.95;;;4.80;;
32633;SDS011;19043;51.012;5.648;2022-07-12T02:47:30;6.78;;;4.18;;
32633;SDS011;19043;51.012;5.648;2022-07-12T02:49:55;5.38;;;4.50;;
32633;SDS011;19043;51.012;5.648;2022-07-12T02:52:21;5.70;;;4.32;;
32633;SDS011;19043;51.012;5.648;2022-07-12T02:54:46;9.82;;;4.00;;
32633;SDS011;19043;51.012;5.648;2022-07-12T02:57:11;5.82;;;4.47;;
32633;SDS011;19043;51.012;5.648;2022-07-12T02:59:37;5.68;;;4.65;;
32633;SDS011;19043;51.012;5.648;2022-07-12T03:02:02;5.53;;;4.00;;
32633;SDS011;19043;51.012;5.648;2022-07-12T03:04:27;6.47;;;4.78;;
32633;SDS011;19043;51.012;5.648;2022-07-12T03:06:53;5.28;;;4.57;;
32633;SDS011;19043;51.012;5.648;2022-07-12T03:09:18;6.22;;;4.95;;
32633;SDS011;19043;51.012;5.648;2022-07-12T03:11:44;7.60;;;5.22;;
32633;SDS011;19043;51.012;5.648;2022-07-12T03:14:09;5.82;;;4.20;;
32633;SDS011;19043;51.012;5.648;2022-07-12T03:16:34;6.45;;;4.13;;
32633;SDS011;19043;51.012;5.648;2022-07-12T03:19:00;6.80;;;4.43;;
32633;SDS011;19043;51.012;5.648;2022-07-12T03:21:25;5.30;;;4.20;;
32633;SDS011;19043;51.012;5.648;2022-07-12T03:23:50;6.10;;;4.82;;
32633;SDS011;19043;51.012;5.648;2022-07-12T03:26:16;6.18;;;4.50;;
32633;SDS011;19043;51.012;5.648;2022-07-12T03:28:41;6.15;;;5.05;;
32633;SDS011;19043;51.012;5.648;2022-07-12T03:31:07;5.60;;;4.15;;
32633;SDS011;19043;51.012;5.648;2022-07-12T03:33:32;6.13;;;4.60;;
32633;SDS011;19043;51.012;5.648;2022-07-12T03:35:59;5.88;;;4.55;;
32633;SDS011;19043;51.012;5.648;2022-07-12T03:38:25;6.97;;;4.82;;
32633;SDS011;19043;51.012;5.648;2022-07-12T03:40:50;9.63;;;4.20;;
32633;SDS011;19043;51.012;5.648;2022-07-12T03:43:15;6.80;;;4.80;;
32633;SDS011;19043;51.012;5.648;2022-07-12T03:45:41;7.18;;;4.60;;
32633;SDS011;19043;51.012;5.648;2022-07-12T03:48:08;5.45;;;4.47;;
32633;SDS011;19043;51.012;5.648;2022-07-12T03:50:33;6.35;;;4.97;;
32633;SDS011;19043;51.012;5.648;2022-07-12T03:52:58;9.35;;;5.50;;
32633;SDS011;19043;51.012;5.648;2022-07-12T03:55:24;5.90;;;4.57;;
32633;SDS011;19043;51.012;5.648;2022-07-12T03:57:49;7.13;;;4.53;;
32633;SDS011;19043;51.012;5.648;2022-07-12T04:00:16;10.70;;;5.68;;
32633;SDS011;19043;51.012;5.648;2022-07-12T04:02:41;6.35;;;5.05;;
32633;SDS011;19043;51.012;5.648;2022-07-12T04:05:07;5.93;;;4.95;;
32633;SDS011;19043;51.012;5.648;2022-07-12T04:07:33;8.10;;;5.90;;
32633;SDS011;19043;51.012;5.648;2022-07-12T04:09:59;7.85;;;5.93;;
32633;SDS011;19043;51.012;5.648;2022-07-12T04:12:25;6.85;;;5.50;;
32633;SDS011;19043;51.012;5.648;2022-07-12T04:14:50;8.23;;;5.82;;
32633;SDS011;19043;51.012;5.648;2022-07-12T04:17:15;10.38;;;5.50;;
32633;SDS011;19043;51.012;5.648;2022-07-12T04:19:41;7.82;;;5.10;;
32633;SDS011;19043;51.012;5.648;2022-07-12T04:22:06;8.48;;;6.28;;
32633;SDS011;19043;51.012;5.648;2022-07-12T04:24:31;7.57;;;5.65;;
32633;SDS011;19043;51.012;5.648;2022-07-12T04:26:58;9.52;;;6.20;;
32633;SDS011;19043;51.012;5.648;2022-07-12T04:29:23;7.18;;;6.00;;
32633;SDS011;19043;51.012;5.648;2022-07-12T04:31:48;7.63;;;6.03;;
32633;SDS011;19043;51.012;5.648;2022-07-12T04:34:14;9.88;;;6.63;;
32633;SDS011;19043;51.012;5.648;2022-07-12T04:36:46;9.43;;;6.47;;
32633;SDS011;19043;51.012;5.648;2022-07-12T04:39:12;8.07;;;5.32;;
32633;SDS011;19043;51.012;5.648;2022-07-12T04:41:38;7.60;;;5.28;;
32633;SDS011;19043;51.012;5.648;2022-07-12T04:44:06;8.15;;;6.15;;
32633;SDS011;19043;51.012;5.648;2022-07-12T04:46:32;8.52;;;6.13;;
32633;SDS011;19043;51.012;5.648;2022-07-12T04:48:58;10.60;;;6.25;;
32633;SDS011;19043;51.012;5.648;2022-07-12T04:51:24;11.02;;;7.32;;
32633;SDS011;19043;51.012;5.648;2022-07-12T04:53:49;8.13;;;6.57;;
32633;SDS011;19043;51.012;5.648;2022-07-12T04:56:14;10.40;;;7.50;;
32633;SDS011;19043;51.012;5.648;2022-07-12T04:58:40;9.95;;;7.13;;
32633;SDS011;19043;51.012;5.648;2022-07-12T05:01:05;10.93;;;7.93;;
32633;SDS011;19043;51.012;5.648;2022-07-12T05:03:32;10.05;;;7.63;;
32633;SDS011;19043;51.012;5.648;2022-07-12T05:05:57;9.93;;;8.52;;
32633;SDS011;19043;51.012;5.648;2022-07-12T05:08:23;10.52;;;8.32;;
32633;SDS011;19043;51.012;5.648;2022-07-12T05:10:48;11.13;;;9.10;;
32633;SDS011;19043;51.012;5.648;2022-07-12T05:13:14;10.35;;;8.65;;
32633;SDS011;19043;51.012;5.648;2022-07-12T05:15:39;10.25;;;9.02;;
32633;SDS011;19043;51.012;5.648;2022-07-12T05:18:04;10.38;;;8.77;;
32633;SDS011;19043;51.012;5.648;2022-07-12T05:20:30;14.98;;;10.15;;
32633;SDS011;19043;51.012;5.648;2022-07-12T05:22:55;14.27;;;10.38;;
32633;SDS011;19043;51.012;5.648;2022-07-12T05:25:21;12.82;;;11.02;;
32633;SDS011;19043;51.012;5.648;2022-07-12T05:27:46;17.27;;;12.20;;
32633;SDS011;19043;51.012;5.648;2022-07-12T05:30:11;13.70;;;12.27;;
32633;SDS011;19043;51.012;5.648;2022-07-12T05:32:37;17.17;;;15.02;;
32633;SDS011;19043;51.012;5.648;2022-07-12T05:35:02;16.58;;;14.05;;
32633;SDS011;19043;51.012;5.648;2022-07-12T05:37:29;16.83;;;14.80;;
32633;SDS011;19043;51.012;5.648;2022-07-12T05:39:54;16.70;;;14.98;;
32633;SDS011;19043;51.012;5.648;2022-07-12T05:42:20;19.58;;;15.50;;
32633;SDS011;19043;51.012;5.648;2022-07-12T05:44:45;17.40;;;14.98;;
32633;SDS011;19043;51.012;5.648;2022-07-12T05:47:11;18.40;;;14.88;;
32633;SDS011;19043;51.012;5.648;2022-07-12T05:49:37;17.33;;;15.50;;
32633;SDS011;19043;51.012;5.648;2022-07-12T05:52:02;18.10;;;15.27;;
32633;SDS011;19043;51.012;5.648;2022-07-12T05:54:46;19.70;;;13.80;;
32633;SDS011;19043;51.012;5.648;2022-07-12T05:57:12;17.35;;;14.05;;
32633;SDS011;19043;51.012;5.648;2022-07-12T05:59:37;18.45;;;14.32;;
32633;SDS011;19043;51.012;5.648;2022-07-12T06:02:05;16.27;;;12.40;;
32633;SDS011;19043;51.012;5.648;2022-07-12T06:04:31;14.20;;;12.55;;
32633;SDS011;19043;51.012;5.648;2022-07-12T06:06:56;15.20;;;13.45;;
32633;SDS011;19043;51.012;5.648;2022-07-12T06:09:22;14.95;;;13.05;;
32633;SDS011;19043;51.012;5.648;2022-07-12T06:11:48;16.45;;;13.55;;
32633;SDS011;19043;51.012;5.648;2022-07-12T06:14:13;15.43;;;13.02;;
32633;SDS011;19043;51.012;5.648;2022-07-12T06:16:38;14.45;;;13.05;;
32633;SDS011;19043;51.012;5.648;2022-07-12T06:19:04;15.05;;;13.50;;
32633;SDS011;19043;51.012;5.648;2022-07-12T06:21:29;20.80;;;16.40;;
32633;SDS011;19043;51.012;5.648;2022-07-12T06:23:54;14.52;;;13.05;;
32633;SDS011;19043;51.012;5.648;2022-07-12T06:26:20;18.08;;;14.05;;
32633;SDS011;19043;51.012;5.648;2022-07-12T06:28:45;13.10;;;11.80;;
32633;SDS011;19043;51.012;5.648;2022-07-12T06:31:11;15.05;;;12.60;;
32633;SDS011;19043;51.012;5.648;2022-07-12T06:33:36;12.93;;;11.63;;
32633;SDS011;19043;51.012;5.648;2022-07-12T06:36:01;14.88;;;11.50;;
32633;SDS011;19043;51.012;5.648;2022-07-12T06:38:27;11.70;;;10.27;;
32633;SDS011;19043;51.012;5.648;2022-07-12T06:40:52;11.38;;;9.20;;
32633;SDS011;19043;51.012;5.648;2022-07-12T06:43:18;10.70;;;9.30;;
32633;SDS011;19043;51.012;5.648;2022-07-12T06:45:43;10.40;;;9.30;;
32633;SDS011;19043;51.012;5.648;2022-07-12T06:48:09;10.40;;;8.60;;
32633;SDS011;19043;51.012;5.648;2022-07-12T06:50:35;11.55;;;9.07;;
32633;SDS011;19043;51.012;5.648;2022-07-12T06:53:00;10.70;;;8.73;;
32633;SDS011;19043;51.012;5.648;2022-07-12T06:55:26;11.38;;;9.30;;
32633;SDS011;19043;51.012;5.648;2022-07-12T06:57:51;10.40;;;8.60;;
32633;SDS011;19043;51.012;5.648;2022-07-12T07:00:17;9.70;;;8.63;;
32633;SDS011;19043;51.012;5.648;2022-07-12T07:02:42;10.70;;;9.60;;
32633;SDS011;19043;51.012;5.648;2022-07-12T07:05:08;11.57;;;10.48;;
32633;SDS011;19043;51.012;5.648;2022-07-12T07:07:33;16.55;;;11.75;;
32633;SDS011;19043;51.012;5.648;2022-07-12T07:09:59;11.77;;;10.57;;
32633;SDS011;19043;51.012;5.648;2022-07-12T07:12:24;14.50;;;11.05;;
32633;SDS011;19043;51.012;5.648;2022-07-12T07:14:50;11.77;;;10.57;;
32633;SDS011;19043;51.012;5.648;2022-07-12T07:17:15;11.45;;;9.48;;
32633;SDS011;19043;51.012;5.648;2022-07-12T07:19:42;11.50;;;9.05;;
32633;SDS011;19043;51.012;5.648;2022-07-12T07:22:07;9.68;;;8.27;;
32633;SDS011;19043;51.012;5.648;2022-07-12T07:24:33;9.65;;;8.65;;
32633;SDS011;19043;51.012;5.648;2022-07-12T07:26:58;11.02;;;8.90;;
32633;SDS011;19043;51.012;5.648;2022-07-12T07:29:24;15.15;;;9.00;;
32633;SDS011;19043;51.012;5.648;2022-07-12T07:32:08;13.40;;;9.00;;
32633;SDS011;19043;51.012;5.648;2022-07-12T07:34:33;8.90;;;7.78;;
32633;SDS011;19043;51.012;5.648;2022-07-12T07:36:59;9.52;;;8.10;;
32633;SDS011;19043;51.012;5.648;2022-07-12T07:39:24;9.05;;;7.43;;
32633;SDS011;19043;51.012;5.648;2022-07-12T07:41:50;8.80;;;7.28;;
32633;SDS011;19043;51.012;5.648;2022-07-12T07:44:15;9.65;;;7.35;;
32633;SDS011;19043;51.012;5.648;2022-07-12T07:46:40;8.10;;;6.93;;
32633;SDS011;19043;51.012;5.648;2022-07-12T07:49:06;9.10;;;6.82;;
32633;SDS011;19043;51.012;5.648;2022-07-12T07:51:31;9.07;;;6.75;;
32633;SDS011;19043;51.012;5.648;2022-07-12T07:53:56;8.95;;;7.35;;
32633;SDS011;19043;51.012;5.648;2022-07-12T07:56:22;10.02;;;6.93;;
32633;SDS011;19043;51.012;5.648;2022-07-12T07:58:47;7.03;;;5.32;;
32633;SDS011;19043;51.012;5.648;2022-07-12T08:01:13;7.82;;;6.88;;
32633;SDS011;19043;51.012;5.648;2022-07-12T08:03:38;5.45;;;4.93;;
32633;SDS011;19043;51.012;5.648;2022-07-12T08:06:04;7.47;;;6.05;;
32633;SDS011;19043;51.012;5.648;2022-07-12T08:08:30;9.30;;;6.18;;
32633;SDS011;19043;51.012;5.648;2022-07-12T08:10:55;6.53;;;4.45;;
32633;SDS011;19043;51.012;5.648;2022-07-12T08:13:21;7.55;;;4.63;;
32633;SDS011;19043;51.012;5.648;2022-07-12T08:15:46;5.55;;;4.55;;
32633;SDS011;19043;51.012;5.648;2022-07-12T08:18:12;5.75;;;4.25;;
32633;SDS011;19043;51.012;5.648;2022-07-12T08:20:38;5.70;;;4.20;;
32633;SDS011;19043;51.012;5.648;2022-07-12T08:23:03;5.07;;;4.13;;
32633;SDS011;19043;51.012;5.648;2022-07-12T08:25:28;8.65;;;4.05;;
32633;SDS011;19043;51.012;5.648;2022-07-12T08:27:54;4.57;;;3.83;;
32633;SDS011;19043;51.012;5.648;2022-07-12T08:30:19;4.70;;;3.20;;
32633;SDS011;19043;51.012;5.648;2022-07-12T08:32:45;5.30;;;3.63;;
32633;SDS011;19043;51.012;5.648;2022-07-12T08:35:11;4.60;;;3.08;;
32633;SDS011;19043;51.012;5.648;2022-07-12T08:37:37;4.30;;;3.28;;
32633;SDS011;19043;51.012;5.648;2022-07-12T08:40:03;5.03;;;3.65;;
32633;SDS011;19043;51.012;5.648;2022-07-12T08:42:29;4.38;;;3.25;;
32633;SDS011;19043;51.012;5.648;2022-07-12T08:44:55;4.90;;;3.53;;
32633;SDS011;19043;51.012;5.648;2022-07-12T08:47:21;7.53;;;3.97;;
32633;SDS011;19043;51.012;5.648;2022-07-12T08:52:43;7.32;;;2.97;;
32633;SDS011;19043;51.012;5.648;2022-07-12T08:55:31;5.10;;;3.47;;
32633;SDS011;19043;51.012;5.648;2022-07-12T08:58:04;7.15;;;3.38;;
32633;SDS011;19043;51.012;5.648;2022-07-12T09:00:31;6.50;;;3.33;;
32633;SDS011;19043;51.012;5.648;2022-07-12T09:02:58;4.53;;;3.35;;
32633;SDS011;19043;51.012;5.648;2022-07-12T09:05:25;5.05;;;3.55;;
32633;SDS011;19043;51.012;5.648;2022-07-12T09:07:52;5.78;;;3.35;;
32633;SDS011;19043;51.012;5.648;2022-07-12T09:10:30;5.32;;;3.30;;
32633;SDS011;19043;51.012;5.648;2022-07-12T09:12:55;4.07;;;2.90;;
32633;SDS011;19043;51.012;5.648;2022-07-12T09:15:21;5.93;;;3.55;;
32633;SDS011;19043;51.012;5.648;2022-07-12T09:22:57;4.45;;;3.28;;
32633;SDS011;19043;51.012;5.648;2022-07-12T09:25:23;4.07;;;2.90;;
32633;SDS011;19043;51.012;5.648;2022-07-12T09:27:56;5.20;;;4.10;;
32633;SDS011;19043;51.012;5.648;2022-07-12T09:30:23;5.35;;;3.92;;
32633;SDS011;19043;51.012;5.648;2022-07-12T09:38:36;4.63;;;2.95;;
32633;SDS011;19043;51.012;5.648;2022-07-12T09:41:03;4.68;;;3.35;;
32633;SDS011;19043;51.012;5.648;2022-07-12T09:43:29;7.82;;;3.50;;
32633;SDS011;19043;51.012;5.648;2022-07-12T09:45:55;3.85;;;2.60;;
32633;SDS011;19043;51.012;5.648;2022-07-12T09:48:21;4.65;;;2.83;;
32633;SDS011;19043;51.012;5.648;2022-07-12T09:50:48;5.28;;;3.15;;
32633;SDS011;19043;51.012;5.648;2022-07-12T09:53:17;6.43;;;3.28;;
32633;SDS011;19043;51.012;5.648;2022-07-12T09:55:45;5.00;;;2.88;;
32633;SDS011;19043;51.012;5.648;2022-07-12T09:58:14;4.35;;;3.08;;
32633;SDS011;19043;51.012;5.648;2022-07-12T10:00:43;5.18;;;3.08;;
32633;SDS011;19043;51.012;5.648;2022-07-12T10:03:08;4.70;;;3.03;;
32633;SDS011;19043;51.012;5.648;2022-07-12T10:05:34;10.43;;;3.10;;
32633;SDS011;19043;51.012;5.648;2022-07-12T10:08:00;5.20;;;3.38;;
32633;SDS011;19043;51.012;5.648;2022-07-12T10:10:27;9.15;;;2.90;;
32633;SDS011;19043;51.012;5.648;2022-07-12T10:12:52;4.03;;;2.38;;
32633;SDS011;19043;51.012;5.648;2022-07-12T10:15:19;6.80;;;2.33;;
32633;SDS011;19043;51.012;5.648;2022-07-12T10:17:53;5.25;;;2.83;;
32633;SDS011;19043;51.012;5.648;2022-07-12T10:20:20;7.85;;;2.85;;
32633;SDS011;19043;51.012;5.648;2022-07-12T10:22:47;4.43;;;2.72;;
32633;SDS011;19043;51.012;5.648;2022-07-12T10:27:53;4.75;;;2.85;;
32633;SDS011;19043;51.012;5.648;2022-07-12T10:30:20;5.50;;;2.75;;
32633;SDS011;19043;51.012;5.648;2022-07-12T10:32:47;3.63;;;2.30;;
32633;SDS011;19043;51.012;5.648;2022-07-12T10:35:17;5.07;;;2.45;;
32633;SDS011;19043;51.012;5.648;2022-07-12T10:40:38;6.63;;;2.47;;
32633;SDS011;19043;51.012;5.648;2022-07-12T10:45:39;7.10;;;2.30;;
32633;SDS011;19043;51.012;5.648;2022-07-12T10:48:06;4.00;;;1.98;;
32633;SDS011;19043;51.012;5.648;2022-07-12T10:58:48;3.33;;;1.60;;
32633;SDS011;19043;51.012;5.648;2022-07-12T11:01:16;6.03;;;1.95;;
32633;SDS011;19043;51.012;5.648;2022-07-12T11:03:49;3.47;;;1.88;;
32633;SDS011;19043;51.012;5.648;2022-07-12T11:06:17;4.35;;;2.05;;
32633;SDS011;19043;51.012;5.648;2022-07-12T11:11:12;6.30;;;2.20;;
32633;SDS011;19043;51.012;5.648;2022-07-12T11:13:38;3.88;;;1.80;;
32633;SDS011;19043;51.012;5.648;2022-07-12T11:16:03;3.75;;;1.30;;
32633;SDS011;19043;51.012;5.648;2022-07-12T11:18:32;3.13;;;1.50;;
32633;SDS011;19043;51.012;5.648;2022-07-12T11:20:59;2.80;;;1.42;;
32633;SDS011;19043;51.012;5.648;2022-07-12T11:23:25;4.95;;;1.50;;
32633;SDS011;19043;51.012;5.648;2022-07-12T11:25:54;4.20;;;1.33;;
32633;SDS011;19043;51.012;5.648;2022-07-12T11:28:20;2.85;;;1.65;;
32633;SDS011;19043;51.012;5.648;2022-07-12T11:30:52;3.35;;;1.48;;
32633;SDS011;19043;51.012;5.648;2022-07-12T11:33:19;2.45;;;1.50;;
32633;SDS011;19043;51.012;5.648;2022-07-12T11:35:49;2.83;;;1.40;;
32633;SDS011;19043;51.012;5.648;2022-07-12T11:38:16;4.15;;;1.98;;
32633;SDS011;19043;51.012;5.648;2022-07-12T11:40:53;2.50;;;1.30;;
32633;SDS011;19043;51.012;5.648;2022-07-12T11:43:20;2.70;;;1.17;;
32633;SDS011;19043;51.012;5.648;2022-07-12T11:45:45;3.00;;;1.17;;
32633;SDS011;19043;51.012;5.648;2022-07-12T11:48:11;4.88;;;2.15;;
32633;SDS011;19043;51.012;5.648;2022-07-12T11:50:36;4.72;;;1.77;;
32633;SDS011;19043;51.012;5.648;2022-07-12T11:53:03;2.20;;;1.27;;
32633;SDS011;19043;51.012;5.648;2022-07-12T11:55:29;3.13;;;1.63;;
32633;SDS011;19043;51.012;5.648;2022-07-12T11:58:06;2.85;;;1.70;;
32633;SDS011;19043;51.012;5.648;2022-07-12T12:00:31;5.32;;;1.80;;
32633;SDS011;19043;51.012;5.648;2022-07-12T12:02:57;6.15;;;1.77;;
32633;SDS011;19043;51.012;5.648;2022-07-12T12:05:23;2.88;;;1.60;;
32633;SDS011;19043;51.012;5.648;2022-07-12T12:07:48;7.03;;;1.58;;
32633;SDS011;19043;51.012;5.648;2022-07-12T12:10:15;2.50;;;1.45;;
32633;SDS011;19043;51.012;5.648;2022-07-12T12:12:42;3.08;;;1.80;;
32633;SDS011;19043;51.012;5.648;2022-07-12T12:15:10;3.08;;;1.50;;
32633;SDS011;19043;51.012;5.648;2022-07-12T12:17:36;2.90;;;1.23;;
32633;SDS011;19043;51.012;5.648;2022-07-12T12:22:59;2.78;;;1.27;;
32633;SDS011;19043;51.012;5.648;2022-07-12T12:25:26;6.85;;;1.23;;
32633;SDS011;19043;51.012;5.648;2022-07-12T12:27:56;3.33;;;1.55;;
32633;SDS011;19043;51.012;5.648;2022-07-12T12:30:30;2.55;;;1.30;;
32633;SDS011;19043;51.012;5.648;2022-07-12T12:32:57;2.00;;;1.20;;
32633;SDS011;19043;51.012;5.648;2022-07-12T12:35:31;2.65;;;1.42;;
32633;SDS011;19043;51.012;5.648;2022-07-12T12:38:03;4.45;;;1.48;;
32633;SDS011;19043;51.012;5.648;2022-07-12T12:40:35;4.88;;;3.45;;
32633;SDS011;19043;51.012;5.648;2022-07-12T12:45:33;2.38;;;1.40;;
32633;SDS011;19043;51.012;5.648;2022-07-12T12:48:02;3.58;;;1.58;;
32633;SDS011;19043;51.012;5.648;2022-07-12T12:50:35;2.33;;;1.33;;
32633;SDS011;19043;51.012;5.648;2022-07-12T12:53:10;6.10;;;1.70;;
32633;SDS011;19043;51.012;5.648;2022-07-12T12:55:44;3.22;;;1.65;;
32633;SDS011;19043;51.012;5.648;2022-07-12T12:58:11;2.40;;;1.35;;
32633;SDS011;19043;51.012;5.648;2022-07-12T13:00:37;10.35;;;1.67;;
32633;SDS011;19043;51.012;5.648;2022-07-12T13:03:04;3.45;;;1.63;;
32633;SDS011;19043;51.012;5.648;2022-07-12T13:05:31;2.60;;;1.17;;
32633;SDS011;19043;51.012;5.648;2022-07-12T13:07:56;2.22;;;1.38;;
32633;SDS011;19043;51.012;5.648;2022-07-12T13:10:22;3.53;;;1.65;;
32633;SDS011;19043;51.012;5.648;2022-07-12T13:12:48;3.00;;;1.65;;
32633;SDS011;19043;51.012;5.648;2022-07-12T13:15:14;2.95;;;1.75;;
32633;SDS011;19043;51.012;5.648;2022-07-12T13:17:39;3.88;;;1.80;;
32633;SDS011;19043;51.012;5.648;2022-07-12T13:20:04;6.18;;;1.92;;
32633;SDS011;19043;51.012;5.648;2022-07-12T13:22:32;3.30;;;1.90;;
32633;SDS011;19043;51.012;5.648;2022-07-12T13:24:58;3.03;;;1.75;;
32633;SDS011;19043;51.012;5.648;2022-07-12T13:27:23;3.05;;;1.85;;
32633;SDS011;19043;51.012;5.648;2022-07-12T13:29:49;3.80;;;2.08;;
32633;SDS011;19043;51.012;5.648;2022-07-12T13:32:14;4.10;;;2.08;;
32633;SDS011;19043;51.012;5.648;2022-07-12T13:34:39;3.35;;;2.03;;
32633;SDS011;19043;51.012;5.648;2022-07-12T13:37:05;4.60;;;1.85;;
32633;SDS011;19043;51.012;5.648;2022-07-12T13:39:30;6.93;;;2.10;;
32633;SDS011;19043;51.012;5.648;2022-07-12T13:42:14;4.47;;;2.20;;
32633;SDS011;19043;51.012;5.648;2022-07-12T13:44:41;5.55;;;2.05;;
32633;SDS011;19043;51.012;5.648;2022-07-12T13:47:07;4.60;;;2.53;;
32633;SDS011;19043;51.012;5.648;2022-07-12T13:49:32;5.57;;;2.10;;
32633;SDS011;19043;51.012;5.648;2022-07-12T13:51:58;10.93;;;2.55;;
32633;SDS011;19043;51.012;5.648;2022-07-12T13:54:23;3.95;;;2.17;;
32633;SDS011;19043;51.012;5.648;2022-07-12T13:56:49;5.97;;;2.55;;
32633;SDS011;19043;51.012;5.648;2022-07-12T13:59:14;4.68;;;2.17;;
32633;SDS011;19043;51.012;5.648;2022-07-12T14:01:40;3.20;;;1.90;;
32633;SDS011;19043;51.012;5.648;2022-07-12T14:04:05;4.32;;;1.92;;
32633;SDS011;19043;51.012;5.648;2022-07-12T14:06:30;4.30;;;2.00;;
32633;SDS011;19043;51.012;5.648;2022-07-12T14:08:56;5.47;;;2.30;;
32633;SDS011;19043;51.012;5.648;2022-07-12T14:11:21;5.07;;;2.17;;
32633;SDS011;19043;51.012;5.648;2022-07-12T14:13:47;5.30;;;2.25;;
32633;SDS011;19043;51.012;5.648;2022-07-12T14:16:12;5.93;;;2.13;;
32633;SDS011;19043;51.012;5.648;2022-07-12T14:18:39;4.63;;;2.10;;
32633;SDS011;19043;51.012;5.648;2022-07-12T14:21:04;4.68;;;2.15;;
32633;SDS011;19043;51.012;5.648;2022-07-12T14:23:31;5.57;;;2.35;;
32633;SDS011;19043;51.012;5.648;2022-07-12T14:25:57;5.75;;;2.35;;
32633;SDS011;19043;51.012;5.648;2022-07-12T14:28:22;3.92;;;2.15;;
32633;SDS011;19043;51.012;5.648;2022-07-12T14:30:47;4.38;;;2.20;;
32633;SDS011;19043;51.012;5.648;2022-07-12T14:33:13;5.10;;;2.30;;
32633;SDS011;19043;51.012;5.648;2022-07-12T14:35:38;14.00;;;2.38;;
32633;SDS011;19043;51.012;5.648;2022-07-12T14:38:04;4.72;;;2.10;;
32633;SDS011;19043;51.012;5.648;2022-07-12T14:40:29;11.65;;;2.03;;
32633;SDS011;19043;51.012;5.648;2022-07-12T14:42:54;3.30;;;1.73;;
32633;SDS011;19043;51.012;5.648;2022-07-12T14:45:22;4.72;;;2.00;;
32633;SDS011;19043;51.012;5.648;2022-07-12T14:47:48;4.70;;;2.28;;
32633;SDS011;19043;51.012;5.648;2022-07-12T14:50:13;4.75;;;2.08;;
32633;SDS011;19043;51.012;5.648;2022-07-12T14:52:39;3.40;;;1.70;;
32633;SDS011;19043;51.012;5.648;2022-07-12T14:55:04;4.65;;;1.95;;
32633;SDS011;19043;51.012;5.648;2022-07-12T14:57:30;3.42;;;1.80;;
32633;SDS011;19043;51.012;5.648;2022-07-12T14:59:55;4.55;;;2.17;;
32633;SDS011;19043;51.012;5.648;2022-07-12T15:02:21;3.35;;;1.70;;
32633;SDS011;19043;51.012;5.648;2022-07-12T15:04:47;8.73;;;1.92;;
32633;SDS011;19043;51.012;5.648;2022-07-12T15:07:12;3.17;;;1.73;;
32633;SDS011;19043;51.012;5.648;2022-07-12T15:09:37;3.22;;;1.65;;
32633;SDS011;19043;51.012;5.648;2022-07-12T15:12:03;3.08;;;1.55;;
32633;SDS011;19043;51.012;5.648;2022-07-12T15:14:29;3.38;;;1.20;;
32633;SDS011;19043;51.012;5.648;2022-07-12T15:16:54;3.45;;;1.80;;